Time;durP1;ratioP1;P1;durP2;ratioP2;P2;SDS_P1;SDS_P2;PMS_P1;PMS_P2;Temp;Humidity;BMP_temperature;BMP_pressure;BME280_temperature;BME280_humidity;BME280_pressure;Samples;Min_cycle;Max_cycle;Signal;HPM_P1;HPM_P2
2022/06/25 00:01:19;;;;;;;7.37;6.17;;;;;;;18.15;72.27;96892.81;5068643;28;20237;-71
2022/06/25 00:03:46;;;;;;;6.50;5.80;;;;;;;18.22;72.13;96893.97;5066592;28;20187;-70
2022/06/25 00:06:15;;;;;;;6.33;5.83;;;;;;;18.46;71.48;96892.09;5068271;28;20232;-71
2022/06/25 00:08:44;;;;;;;7.50;6.57;;;;;;;18.40;70.80;96887.31;5032413;28;20195;-71
2022/06/25 00:12:31;;;;;;;9.07;6.40;;;;;;;18.30;70.89;96887.19;5068204;28;20188;-70
2022/06/25 00:14:07;;;;;;;7.37;6.67;;;;;;;18.04;71.14;96890.19;5068083;28;20776;-71
2022/06/25 00:16:34;;;;;;;6.73;6.00;;;;;;;17.81;71.96;96884.09;5066652;28;20234;-70
2022/06/25 00:19:03;;;;;;;8.40;6.43;;;;;;;17.83;71.72;96872.56;5068259;28;20202;-70
2022/06/25 00:21:31;;;;;;;8.50;5.90;;;;;;;17.86;71.53;96877.56;5066402;28;20190;-69
2022/06/25 00:23:58;;;;;;;7.23;6.50;;;;;;;18.05;70.53;96876.16;5067806;28;20251;-71
2022/06/25 00:26:25;;;;;;;7.97;6.03;;;;;;;18.20;69.91;96874.91;5066958;28;20545;-72
2022/06/25 00:28:52;;;;;;;7.20;6.50;;;;;;;18.24;69.66;96877.19;5049381;28;20702;-72
2022/06/25 00:31:19;;;;;;;6.70;6.10;;;;;;;18.08;70.27;96866.25;5050007;28;20244;-72
2022/06/25 00:33:46;;;;;;;7.83;6.57;;;;;;;18.12;70.06;96866.84;5048501;28;20685;-71
2022/06/25 00:36:13;;;;;;;7.97;6.57;;;;;;;18.23;69.83;96870.28;5049841;28;20204;-72
2022/06/25 00:38:40;;;;;;;7.13;6.43;;;;;;;18.50;69.03;96869.91;5031604;28;20608;-72
2022/06/25 00:41:08;;;;;;;8.63;7.50;;;;;;;18.65;68.00;96871.28;5049988;28;20194;-71
2022/06/25 00:43:39;;;;;;;9.40;7.17;;;;;;;18.57;67.93;96863.22;5032366;28;20203;-72
2022/06/25 00:46:07;;;;;;;8.07;7.37;;;;;;;18.78;67.83;96863.28;5067152;28;20203;-72
2022/06/25 00:48:34;;;;;;;8.30;7.40;;;;;;;18.72;68.07;96855.91;5067876;28;20226;-71
2022/06/25 00:51:06;;;;;;;8.60;7.77;;;;;;;18.77;67.55;96854.59;5066137;28;20377;-71
2022/06/25 00:53:33;;;;;;;9.57;8.70;;;;;;;18.83;67.26;96835.72;5067656;28;20202;-70
2022/06/25 00:56:05;;;;;;;11.17;10.07;;;;;;;18.94;67.02;96853.22;5066159;28;20192;-70
2022/06/25 00:58:33;;;;;;;12.03;9.53;;;;;;;18.99;67.06;96849.25;5067688;28;20222;-70
2022/06/25 01:01:00;;;;;;;10.40;9.40;;;;;;;18.96;66.91;96849.47;5066878;28;20674;-72
2022/06/25 01:03:29;;;;;;;12.23;9.20;;;;;;;19.06;66.88;96841.69;5032397;28;20309;-72
2022/06/25 01:05:56;;;;;;;9.50;8.50;;;;;;;19.01;66.58;96836.81;5067642;28;20258;-71
2022/06/25 01:08:23;;;;;;;9.57;8.77;;;;;;;19.06;66.93;96839.06;5047811;28;20228;-71
2022/06/25 01:10:50;;;;;;;9.00;8.17;;;;;;;19.17;66.32;96842.47;5067439;28;20185;-71
2022/06/25 01:13:21;;;;;;;8.97;8.17;;;;;;;18.82;67.13;96841.91;5047894;28;20196;-70
2022/06/25 01:15:49;;;;;;;9.03;8.23;;;;;;;18.37;69.03;96846.44;5067367;28;20219;-72
2022/06/25 01:18:18;;;;;;;8.20;7.40;;;;;;;18.07;69.69;96837.53;5048727;28;20843;-71
2022/06/25 01:20:46;;;;;;;8.70;7.80;;;;;;;17.86;70.41;96822.56;5053948;28;20189;-72
2022/06/25 01:23:14;;;;;;;8.53;7.83;;;;;;;17.93;70.67;96837.81;5075125;28;20191;-72
2022/06/25 01:25:42;;;;;;;8.03;7.27;;;;;;;17.96;70.47;96819.19;5054070;28;20772;-72
2022/06/25 01:28:09;;;;;;;8.13;7.33;;;;;;;18.21;70.03;96826.81;5056843;28;20234;-70
2022/06/25 01:30:37;;;;;;;8.60;7.80;;;;;;;18.32;69.52;96837.28;5049157;28;20190;-70
2022/06/25 01:33:08;;;;;;;8.67;7.87;;;;;;;18.44;68.53;96831.06;5050448;28;20267;-70
2022/06/25 01:35:36;;;;;;;9.27;7.53;;;;;;;18.47;68.63;96834.28;5067573;28;20205;-70
2022/06/25 01:38:03;;;;;;;7.57;6.97;;;;;;;18.57;68.46;96823.88;5070162;28;20277;-71
2022/06/25 01:40:34;;;;;;;9.33;6.87;;;;;;;18.43;68.66;96832.00;5054139;28;20188;-70
2022/06/25 01:43:02;;;;;;;8.93;7.30;;;;;;;18.48;68.45;96824.63;5052316;28;20195;-69
2022/06/25 01:45:36;;;;;;;7.30;6.60;;;;;;;18.42;68.73;96825.91;5053277;28;20184;-69
2022/06/25 01:48:05;;;;;;;9.90;7.33;;;;;;;18.28;69.12;96817.50;5069455;28;20191;-70
2022/06/25 01:50:35;;;;;;;7.60;6.80;;;;;;;17.84;70.35;96821.00;5052689;28;20214;-69
2022/06/25 01:53:03;;;;;;;6.97;6.27;;;;;;;17.52;71.68;96828.72;5052573;28;20183;-69
2022/06/25 01:55:30;;;;;;;7.70;6.80;;;;;;;17.29;72.51;96821.75;5051865;28;20183;-69
2022/06/25 01:57:58;;;;;;;7.07;6.20;;;;;;;17.13;73.58;96829.09;5053022;28;20227;-69
2022/06/25 02:00:29;;;;;;;9.10;6.20;;;;;;;17.04;73.86;96832.41;5051698;28;20245;-69
2022/06/25 02:03:02;;;;;;;8.33;6.30;;;;;;;16.90;74.55;96829.97;5053015;28;20194;-71
2022/06/25 02:08:18;;;;;;;6.67;6.07;;;;;;;17.00;74.18;96823.13;5070050;28;20197;-72
2022/06/25 02:10:47;;;;;;;6.83;6.10;;;;;;;17.11;73.65;96831.00;5053118;28;20195;-70
2022/06/25 02:13:15;;;;;;;6.90;6.27;;;;;;;17.24;72.89;96833.53;5069815;28;20201;-70
2022/06/25 02:16:03;;;;;;;9.07;7.03;;;;;;;17.41;72.78;96828.69;5041577;28;20299;-70
2022/06/25 02:18:35;;;;;;;7.23;6.50;;;;;;;17.46;72.29;96821.31;5051691;28;20727;-72
2022/06/25 02:21:04;;;;;;;7.73;7.00;;;;;;;17.34;72.31;96816.16;5051915;28;20182;-72
2022/06/25 02:23:32;;;;;;;11.03;8.17;;;;;;;17.28;72.61;96822.72;5052642;28;20194;-73
2022/06/25 02:25:59;;;;;;;8.07;7.37;;;;;;;17.09;72.83;96822.44;5050673;28;20696;-72
2022/06/25 02:28:26;;;;;;;9.13;7.30;;;;;;;16.89;74.26;96830.94;5070579;28;20240;-73
2022/06/25 02:30:56;;;;;;;7.57;6.87;;;;;;;16.74;75.15;96826.81;5034502;28;20278;-71
2022/06/25 02:33:23;;;;;;;7.03;6.33;;;;;;;16.88;75.10;96826.63;5070420;28;20626;-72
2022/06/25 02:35:51;;;;;;;6.63;5.90;;;;;;;17.13;74.78;96834.31;5051384;28;20190;-72
2022/06/25 02:38:20;;;;;;;7.40;6.57;;;;;;;17.26;73.68;96811.53;5051471;28;20770;-72
2022/06/25 02:40:51;;;;;;;7.60;6.80;;;;;;;17.51;73.45;96832.31;5052131;28;20688;-72
2022/06/25 02:43:19;;;;;;;7.13;6.43;;;;;;;17.44;73.20;96832.84;5050566;28;20264;-72
2022/06/25 02:45:55;;;;;;;8.17;7.37;;;;;;;17.52;73.38;96833.97;5052132;28;20198;-69
2022/06/25 02:48:23;;;;;;;8.47;6.47;;;;;;;17.29;74.13;96832.22;5049830;28;20586;-70
2022/06/25 02:50:50;;;;;;;9.00;7.23;;;;;;;17.34;74.42;96847.59;5052265;28;20181;-70
2022/06/25 02:53:17;;;;;;;7.00;6.30;;;;;;;17.30;73.88;96843.53;5069307;28;20231;-70
2022/06/25 03:01:25;;;;;;;7.03;6.33;;;;;;;17.32;73.57;96846.88;5033526;28;20193;-72
2022/06/25 03:03:54;;;;;;;7.50;6.17;;;;;;;17.46;72.51;96846.66;5035446;28;20190;-71
2022/06/25 03:06:22;;;;;;;7.20;6.50;;;;;;;17.45;72.18;96840.59;5051304;28;20259;-72
2022/06/25 03:08:50;;;;;;;7.20;6.40;;;;;;;17.70;71.53;96848.25;5068554;28;20531;-72
2022/06/25 03:11:18;;;;;;;6.93;6.10;;;;;;;17.86;70.91;96851.38;5069451;28;20600;-72
2022/06/25 03:13:46;;;;;;;10.27;6.77;;;;;;;17.84;70.62;96853.28;5049835;28;20674;-72
2022/06/25 03:16:14;;;;;;;7.23;6.53;;;;;;;17.86;70.65;96856.63;5063288;28;20612;-72
2022/06/25 03:18:41;;;;;;;9.27;6.23;;;;;;;17.89;70.68;96855.53;5066387;28;20230;-72
2022/06/25 03:21:37;;;;;;;7.70;6.13;;;;;;;17.78;70.88;96860.78;5058867;28;20594;-70
2022/06/25 03:24:06;;;;;;;8.13;5.53;;;;;;;17.68;71.32;96868.50;5067973;28;20187;-71
2022/06/25 03:26:35;;;;;;;6.50;5.70;;;;;;;17.57;71.78;96871.13;5066203;28;20597;-71
2022/06/25 03:29:03;;;;;;;8.17;5.97;;;;;;;17.37;73.01;96884.81;5068132;28;20183;-71
2022/06/25 03:31:33;;;;;;;6.97;6.27;;;;;;;17.27;73.16;96870.75;5066453;28;20183;-71
2022/06/25 03:34:17;;;;;;;6.60;5.90;;;;;;;17.35;73.13;96880.69;5067320;28;20745;-71
2022/06/25 03:36:48;;;;;;;8.83;5.70;;;;;;;17.26;73.76;96881.34;5067886;28;20193;-73
2022/06/25 03:39:16;;;;;;;7.10;6.40;;;;;;;17.16;74.45;96875.97;5066015;28;20217;-72
2022/06/25 03:41:44;;;;;;;6.67;5.97;;;;;;;17.17;74.53;96882.03;5059068;28;20598;-71
2022/06/25 03:44:36;;;;;;;13.50;6.00;;;;;;;17.06;75.47;96885.47;5063635;28;20205;-72
2022/06/25 03:47:10;;;;;;;6.77;6.10;;;;;;;17.45;74.38;96876.41;5051887;28;20745;-71
2022/06/25 03:49:39;;;;;;;6.87;6.10;;;;;;;17.77;72.95;96883.50;5053414;28;20575;-70
2022/06/25 03:52:13;;;;;;;6.20;5.60;;;;;;;18.20;71.60;96875.75;5045805;28;20213;-71
2022/06/25 03:54:39;;;;;;;6.60;6.00;;;;;;;18.36;71.17;96876.22;5048951;28;20571;-72
2022/06/25 03:57:09;;;;;;;6.57;5.97;;;;;;;18.50;70.94;96883.03;5059195;28;20195;-71
2022/06/25 03:59:59;;;;;;;6.10;5.43;;;;;;;18.61;69.93;96885.63;5057051;28;20209;-72
2022/06/25 04:02:38;;;;;;;5.93;5.43;;;;;;;18.65;69.66;96885.25;5065701;28;20210;-70
2022/06/25 04:05:31;;;;;;;7.37;5.40;;;;;;;18.93;68.80;96878.63;5066393;28;20195;-71
2022/06/25 04:08:28;;;;;;;6.03;5.43;;;;;;;19.15;67.57;96875.88;5030129;28;20583;-71
2022/06/25 04:10:59;;;;;;;6.20;5.20;;;;;;;19.28;66.99;96876.56;5066184;28;20194;-69
2022/06/25 04:13:28;;;;;;;5.40;4.90;;;;;;;19.18;66.94;96880.06;5046852;28;20587;-72
2022/06/25 04:15:56;;;;;;;6.87;6.00;;;;;;;19.31;66.42;96884.16;5066885;28;20224;-72
2022/06/25 04:18:27;;;;;;;5.87;5.37;;;;;;;19.68;64.96;96873.25;5065600;28;20281;-70
2022/06/25 04:20:54;;;;;;;6.40;5.80;;;;;;;19.76;64.03;96878.69;5068197;28;20192;-71
2022/06/25 04:23:21;;;;;;;6.93;6.23;;;;;;;19.87;63.68;96873.31;5064904;28;20273;-71
2022/06/25 04:25:50;;;;;;;6.37;5.77;;;;;;;20.06;63.35;96878.69;5066757;28;20197;-72
2022/06/25 04:31:18;;;;;;;6.37;5.77;;;;;;;20.50;61.98;96857.28;5064828;28;20685;-70
2022/06/25 04:33:46;;;;;;;7.20;6.43;;;;;;;21.11;60.28;96859.69;5064293;28;20235;-71
2022/06/25 04:36:14;;;;;;;7.87;5.90;;;;;;;21.33;59.30;96857.59;5046313;28;20194;-72
2022/06/25 04:38:46;;;;;;;7.00;5.67;;;;;;;21.71;58.23;96861.97;5066008;28;20267;-71
2022/06/25 04:41:13;;;;;;;6.83;5.70;;;;;;;22.20;57.16;96864.34;5032585;28;20289;-72
2022/06/25 04:43:43;;;;;;;6.30;5.70;;;;;;;22.46;56.07;96870.59;5065156;28;20209;-70
2022/06/25 04:46:14;;;;;;;7.27;5.20;;;;;;;22.51;56.43;96868.34;5049776;28;20205;-70
2022/06/25 04:48:43;;;;;;;8.60;5.47;;;;;;;22.57;56.44;96856.34;5064544;28;20244;-70
2022/06/25 04:51:23;;;;;;;10.17;5.67;;;;;;;23.06;55.70;96866.47;5066552;28;20187;-70
2022/06/25 04:53:55;;;;;;;6.90;5.77;;;;;;;23.51;55.65;96871.69;5065076;28;20193;-70
2022/06/25 04:56:43;;;;;;;8.70;5.83;;;;;;;23.84;55.05;96876.22;5062122;28;20605;-72
2022/06/25 04:59:13;;;;;;;12.83;6.57;;;;;;;24.10;54.14;96877.06;5050384;28;20233;-70
2022/06/25 05:01:49;;;;;;;6.07;5.43;;;;;;;24.12;54.22;96887.47;5065811;28;20659;-71
2022/06/25 05:04:19;;;;;;;15.93;6.77;;;;;;;24.20;52.87;96874.28;5030933;28;20195;-70
2022/06/25 05:06:47;;;;;;;9.60;6.53;;;;;;;24.18;54.21;96884.22;5028258;28;20229;-70
2022/06/25 05:09:14;;;;;;;6.73;4.97;;;;;;;24.42;52.37;96886.16;5045513;28;20596;-71
2022/06/25 05:11:42;;;;;;;10.07;7.47;;;;;;;24.35;52.86;96870.06;5050536;28;20193;-70
2022/06/25 05:14:09;;;;;;;6.10;5.30;;;;;;;24.40;52.51;96885.47;5065800;28;20218;-70
2022/06/25 05:16:38;;;;;;;6.73;5.93;;;;;;;24.46;53.39;96876.91;5065707;28;20259;-70
2022/06/25 05:19:08;;;;;;;4.40;4.03;;;;;;;24.59;51.64;96877.25;5065420;28;20223;-72
2022/06/25 05:21:37;;;;;;;8.40;5.97;;;;;;;24.72;51.18;96888.25;5065662;28;20245;-70
2022/06/25 05:24:08;;;;;;;6.30;4.70;;;;;;;24.82;51.31;96881.00;5064611;28;20737;-69
2022/06/25 05:26:35;;;;;;;8.30;7.03;;;;;;;24.80;51.32;96883.84;5066684;28;20195;-70
2022/06/25 05:29:02;;;;;;;7.53;6.27;;;;;;;24.88;52.34;96886.50;5065741;28;20191;-70
2022/06/25 05:31:30;;;;;;;8.73;7.60;;;;;;;25.08;51.69;96868.47;5047454;28;20632;-69
2022/06/25 05:33:58;;;;;;;6.33;5.60;;;;;;;25.18;52.56;96879.78;5065812;28;20532;-70
2022/06/25 05:36:25;;;;;;;6.17;5.37;;;;;;;25.49;50.03;96885.28;5038622;28;20763;-70
2022/06/25 05:38:52;;;;;;;5.47;4.87;;;;;;;25.50;49.65;96874.50;5067317;28;20584;-69
2022/06/25 05:41:20;;;;;;;5.40;4.90;;;;;;;25.78;50.23;96873.16;5064523;28;20254;-69
2022/06/25 05:43:47;;;;;;;5.40;4.80;;;;;;;25.76;49.39;96877.00;5059197;28;20197;-70
2022/06/25 05:46:15;;;;;;;6.20;5.20;;;;;;;25.55;49.98;96866.88;5034521;28;20207;-70
2022/06/25 05:48:42;;;;;;;6.87;5.43;;;;;;;25.61;50.01;96878.66;5044989;28;20193;-69
2022/06/25 05:51:10;;;;;;;8.13;5.50;;;;;;;25.61;50.39;96874.19;5047401;28;20272;-70
2022/06/25 05:53:44;;;;;;;10.93;6.20;;;;;;;25.81;49.84;96867.50;5028761;28;20294;-72
2022/06/25 05:56:12;;;;;;;6.67;5.03;;;;;;;26.19;49.96;96873.94;5046331;28;20209;-72
2022/06/25 05:58:39;;;;;;;6.23;5.07;;;;;;;26.18;49.28;96868.78;5027667;28;20633;-69
2022/06/25 06:01:06;;;;;;;10.50;6.67;;;;;;;26.38;48.95;96870.88;5046180;28;20616;-69
2022/06/25 06:03:34;;;;;;;8.27;5.40;;;;;;;26.42;48.46;96876.69;5045319;28;20201;-70
2022/06/25 06:06:11;;;;;;;7.00;5.27;;;;;;;26.58;48.50;96876.59;5046909;28;20196;-71
2022/06/25 06:08:48;;;;;;;5.47;4.67;;;;;;;26.68;47.70;96879.03;5046315;28;20272;-72
2022/06/25 06:11:15;;;;;;;6.30;4.13;;;;;;;26.74;47.39;96886.34;5045048;28;20190;-72
2022/06/25 06:13:42;;;;;;;7.40;5.70;;;;;;;26.70;47.78;96866.41;5047049;28;20252;-71
2022/06/25 06:16:11;;;;;;;6.20;5.00;;;;;;;26.84;47.87;96876.31;5043909;28;20299;-71
2022/06/25 06:18:38;;;;;;;5.43;4.93;;;;;;;26.87;47.96;96879.50;5046622;28;20547;-71
2022/06/25 06:21:05;;;;;;;7.93;4.77;;;;;;;27.12;46.68;96874.84;5046207;28;20579;-71
2022/06/25 06:23:32;;;;;;;6.80;4.93;;;;;;;27.19;44.91;96876.63;5047182;28;20182;-72
2022/06/25 06:25:59;;;;;;;6.13;4.80;;;;;;;27.20;45.47;96872.94;5050412;28;20194;-71
2022/06/25 06:28:26;;;;;;;5.37;4.87;;;;;;;27.26;45.64;96882.06;5048867;28;20200;-71
2022/06/25 06:30:55;;;;;;;4.73;4.30;;;;;;;27.38;45.51;96880.66;5049256;28;20217;-71
2022/06/25 06:33:23;;;;;;;10.17;8.50;;;;;;;27.35;44.33;96862.38;5055533;28;20677;-71
2022/06/25 06:35:50;;;;;;;4.93;4.37;;;;;;;27.60;44.82;96874.50;5050005;28;20622;-71
2022/06/25 06:38:18;;;;;;;6.77;3.97;;;;;;;27.72;43.73;96885.56;5060920;28;20228;-71
2022/06/25 06:40:51;;;;;;;8.10;4.60;;;;;;;27.67;44.34;96879.94;5047479;28;20210;-71
2022/06/25 06:43:18;;;;;;;6.33;4.20;;;;;;;27.64;43.90;96870.47;5048275;28;20186;-71
2022/06/25 06:45:45;;;;;;;6.17;4.67;;;;;;;27.49;44.79;96868.78;5046743;28;20185;-71
2022/06/25 06:48:12;;;;;;;9.40;5.80;;;;;;;27.92;44.34;96879.53;5048746;28;20202;-71
2022/06/25 06:50:40;;;;;;;10.70;5.83;;;;;;;28.23;43.97;96879.41;5046795;28;20194;-71
2022/06/25 06:53:07;;;;;;;8.37;5.30;;;;;;;28.54;43.31;96877.34;5049746;28;20628;-71
2022/06/25 06:55:34;;;;;;;7.93;5.87;;;;;;;28.60;42.19;96874.00;5051068;28;20255;-71
2022/06/25 06:58:01;;;;;;;4.10;3.70;;;;;;;28.66;41.39;96873.25;5068756;28;20186;-71
2022/06/25 07:00:28;;;;;;;4.60;4.20;;;;;;;28.74;40.60;96867.81;5069738;28;20189;-71
2022/06/25 07:02:55;;;;;;;4.00;3.60;;;;;;;28.60;40.28;96867.84;5067983;28;20185;-72
2022/06/25 07:05:22;;;;;;;5.10;3.67;;;;;;;28.53;40.46;96869.53;5069463;28;20585;-72
2022/06/25 07:07:49;;;;;;;5.13;3.70;;;;;;;28.54;40.72;96869.34;5067595;28;20633;-71
2022/06/25 07:10:16;;;;;;;6.60;4.83;;;;;;;28.64;42.44;96869.13;5069663;28;20193;-72
2022/06/25 07:12:43;;;;;;;4.63;4.00;;;;;;;28.70;42.58;96863.88;5066880;28;20201;-72
2022/06/25 07:15:10;;;;;;;4.33;3.93;;;;;;;28.70;41.91;96863.88;5072752;28;20217;-71
2022/06/25 07:17:37;;;;;;;7.97;4.70;;;;;;;28.65;42.29;96857.41;5089336;28;20246;-71
2022/06/25 07:20:06;;;;;;;6.90;4.83;;;;;;;28.72;42.43;96861.84;5069103;28;20227;-71
2022/06/25 07:22:33;;;;;;;5.13;3.67;;;;;;;28.80;41.55;96864.41;5089226;28;20693;-72
2022/06/25 07:25:00;;;;;;;8.97;4.93;;;;;;;28.82;41.23;96862.38;5087700;28;20621;-71
2022/06/25 07:27:29;;;;;;;8.70;7.17;;;;;;;28.87;40.87;96867.94;5089242;28;20710;-71
2022/06/25 07:29:56;;;;;;;5.77;4.90;;;;;;;28.81;41.01;96865.22;5070100;28;20189;-72
2022/06/25 07:32:23;;;;;;;6.50;4.43;;;;;;;28.91;41.77;96865.75;5088501;28;20192;-72
2022/06/25 07:34:50;;;;;;;6.57;4.97;;;;;;;28.66;42.35;96859.94;5077047;28;20194;-72
2022/06/25 07:37:17;;;;;;;6.77;4.77;;;;;;;28.80;41.69;96864.41;5067164;28;20669;-71
2022/06/25 07:39:44;;;;;;;6.80;3.67;;;;;;;28.95;40.55;96865.16;5068084;28;20702;-71
2022/06/25 07:42:11;;;;;;;7.17;3.70;;;;;;;28.85;39.28;96861.97;5072450;28;20668;-71
2022/06/25 07:44:38;;;;;;;5.60;3.97;;;;;;;28.87;39.25;96862.59;5068150;28;20273;-71
2022/06/25 07:47:06;;;;;;;6.50;3.93;;;;;;;29.13;38.69;96853.25;5048700;28;20251;-72
2022/06/25 07:51:56;;;;;;;4.27;3.27;;;;;;;29.07;37.95;96854.00;5067493;28;20280;-72
2022/06/25 07:52:23;;;;;;;5.33;3.50;;;;;;;29.12;38.47;96851.63;5067832;28;20703;-72
2022/06/25 07:54:50;;;;;;;4.47;3.30;;;;;;;29.22;38.29;96873.50;5047949;28;20193;-72
2022/06/25 07:57:17;;;;;;;5.97;4.80;;;;;;;29.21;38.65;96866.50;5067788;28;20200;-71
2022/06/25 07:59:44;;;;;;;3.97;3.30;;;;;;;29.32;38.33;96861.50;5066651;28;20216;-71
2022/06/25 08:02:11;;;;;;;4.13;3.53;;;;;;;29.37;36.41;96861.72;5067433;28;20192;-71
2022/06/25 08:04:38;;;;;;;5.70;3.60;;;;;;;29.42;35.98;96856.66;5067160;28;20201;-72
2022/06/25 08:07:05;;;;;;;4.10;2.90;;;;;;;29.35;35.72;96861.09;5068996;28;20247;-71
2022/06/25 08:09:34;;;;;;;3.77;3.03;;;;;;;29.36;36.28;96853.94;5069969;28;20239;-71
2022/06/25 08:12:01;;;;;;;4.60;3.60;;;;;;;29.46;35.59;96854.44;5077459;28;20193;-72
2022/06/25 08:14:28;;;;;;;9.57;4.83;;;;;;;29.57;35.57;96851.25;5069468;28;20200;-71
2022/06/25 08:16:55;;;;;;;6.53;4.10;;;;;;;29.45;36.03;96828.78;5085800;28;20219;-71
2022/06/25 08:19:22;;;;;;;6.10;4.00;;;;;;;29.47;36.14;96851.56;5087522;28;20313;-72
2022/06/25 08:21:49;;;;;;;3.83;3.43;;;;;;;29.12;35.62;96840.94;5051843;28;20622;-72
2022/06/25 08:24:16;;;;;;;4.10;3.30;;;;;;;28.96;34.82;96845.50;5086854;28;20192;-73
2022/06/25 08:26:44;;;;;;;6.80;3.57;;;;;;;29.10;34.81;96840.31;5087633;28;20189;-71
2022/06/25 08:29:11;;;;;;;6.13;4.10;;;;;;;29.15;35.97;96833.41;5085878;28;20741;-71
2022/06/25 08:31:38;;;;;;;4.43;3.80;;;;;;;29.37;34.91;96840.38;5061616;28;21158;-71
2022/06/25 08:34:05;;;;;;;5.53;4.13;;;;;;;29.60;34.77;96837.50;5065250;28;20189;-72
2022/06/25 08:36:32;;;;;;;4.07;3.67;;;;;;;29.79;34.63;96834.19;5032933;28;20193;-72
2022/06/25 08:38:59;;;;;;;4.47;4.07;;;;;;;29.85;35.65;96833.41;5031270;28;20235;-71
2022/06/25 08:41:28;;;;;;;3.73;3.33;;;;;;;30.00;34.74;96830.63;5066095;28;20663;-72
2022/06/25 08:43:55;;;;;;;12.00;10.10;;;;;;;29.78;35.41;96837.06;5048803;28;20292;-71
2022/06/25 08:46:22;;;;;;;7.27;5.40;;;;;;;29.86;34.60;96832.41;5065138;28;20262;-71
2022/06/25 08:48:50;;;;;;;7.50;4.23;;;;;;;30.08;34.87;96843.84;5067156;28;20193;-72
2022/06/25 08:51:26;;;;;;;7.93;4.20;;;;;;;30.11;34.55;96830.91;5030730;28;20284;-71
2022/06/25 08:53:55;;;;;;;8.63;4.00;;;;;;;30.00;35.12;96831.47;5066447;28;20783;-72
2022/06/25 08:56:23;;;;;;;4.47;3.40;;;;;;;29.01;35.42;96833.44;5065912;28;20717;-71
2022/06/25 08:58:50;;;;;;;6.00;4.33;;;;;;;29.13;34.60;96831.91;5031699;28;20240;-71
2022/06/25 09:01:18;;;;;;;4.80;3.37;;;;;;;29.07;34.88;96828.16;5048878;28;20605;-72
2022/06/25 09:03:46;;;;;;;9.80;4.03;;;;;;;29.13;35.26;96842.56;5065117;28;20192;-72
2022/06/25 09:06:17;;;;;;;9.80;4.30;;;;;;;29.49;33.96;96832.69;5049002;28;20188;-72
2022/06/25 09:09:12;;;;;;;5.10;4.33;;;;;;;29.87;33.42;96841.22;5047112;28;20207;-72
2022/06/25 09:12:04;;;;;;;5.60;5.00;;;;;;;30.07;34.02;96836.88;5066268;28;20276;-71
2022/06/25 09:14:32;;;;;;;5.50;4.20;;;;;;;30.28;32.46;96829.56;5066437;28;20234;-72
2022/06/25 09:17:04;;;;;;;4.40;3.40;;;;;;;30.11;32.90;96830.09;5046915;28;20225;-72
2022/06/25 09:19:38;;;;;;;6.70;4.93;;;;;;;30.07;33.05;96829.66;5066422;28;20221;-72
2022/06/25 09:22:08;;;;;;;3.50;3.20;;;;;;;30.10;32.87;96823.09;5065180;28;20193;-72
2022/06/25 09:24:48;;;;;;;5.17;3.43;;;;;;;30.10;32.81;96818.59;5048396;28;20261;-73
2022/06/25 09:27:33;;;;;;;6.10;3.50;;;;;;;29.97;32.37;96815.00;5048423;28;20200;-72
2022/06/25 09:30:20;;;;;;;3.27;2.97;;;;;;;29.95;33.41;96822.38;5047419;28;20257;-73
2022/06/25 09:32:51;;;;;;;4.87;3.40;;;;;;;29.65;33.67;96827.06;5067031;28;20218;-72
2022/06/25 09:35:32;;;;;;;5.90;3.60;;;;;;;29.62;34.61;96814.09;5066139;28;20187;-73
2022/06/25 09:38:04;;;;;;;5.93;5.10;;;;;;;29.92;33.27;96822.78;5047388;28;20219;-72
2022/06/25 09:40:32;;;;;;;8.23;3.73;;;;;;;30.18;33.83;96818.41;5066361;28;20223;-71
2022/06/25 09:43:09;;;;;;;4.13;3.73;;;;;;;30.39;32.35;96821.03;5053143;28;20280;-72
2022/06/25 09:45:37;;;;;;;3.43;3.13;;;;;;;30.56;32.06;96820.69;5086431;28;20243;-72
2022/06/25 09:48:08;;;;;;;4.07;3.47;;;;;;;30.58;32.79;96821.31;5059950;28;20211;-72
2022/06/25 09:50:35;;;;;;;6.77;2.80;;;;;;;30.54;32.00;96811.00;5078290;28;20374;-72
2022/06/25 09:53:03;;;;;;;6.77;3.23;;;;;;;30.75;32.24;96807.38;5066774;28;20186;-72
2022/06/25 09:55:34;;;;;;;5.30;3.67;;;;;;;30.74;31.48;96813.75;5030946;28;20288;-72
2022/06/25 09:58:04;;;;;;;4.13;3.23;;;;;;;30.90;31.79;96801.91;5050253;28;20221;-72
2022/06/25 10:00:31;;;;;;;4.20;3.50;;;;;;;31.05;31.23;96815.94;5071317;28;20234;-72
2022/06/25 10:02:59;;;;;;;3.40;3.10;;;;;;;31.02;31.06;96806.44;5079855;28;20211;-73
2022/06/25 10:05:34;;;;;;;4.57;3.10;;;;;;;30.94;30.76;96809.31;5082692;28;20189;-72
2022/06/25 10:08:04;;;;;;;4.93;3.13;;;;;;;30.77;31.49;96802.66;5062023;28;20671;-72
2022/06/25 10:10:36;;;;;;;4.00;3.13;;;;;;;30.86;31.23;96800.66;5069910;28;20201;-72
2022/06/25 10:13:04;;;;;;;3.87;3.40;;;;;;;30.95;31.38;96810.97;5069728;28;20194;-72
2022/06/25 10:15:31;;;;;;;3.70;3.20;;;;;;;30.83;31.36;96811.75;5083612;28;20228;-71
2022/06/25 10:18:02;;;;;;;7.33;3.50;;;;;;;30.62;30.78;96812.69;5094008;28;20195;-72
2022/06/25 10:20:30;;;;;;;3.53;3.23;;;;;;;30.35;31.68;96808.25;5080807;28;20760;-72
2022/06/25 10:22:59;;;;;;;5.67;3.50;;;;;;;30.52;32.06;96809.59;5054491;28;20231;-72
2022/06/25 10:25:27;;;;;;;4.83;4.00;;;;;;;30.91;31.64;96808.91;5053805;28;20266;-71
2022/06/25 10:28:05;;;;;;;4.93;3.50;;;;;;;30.74;31.65;96812.94;5090047;28;20192;-72
2022/06/25 10:30:48;;;;;;;4.67;3.20;;;;;;;30.07;31.95;96808.28;5088956;28;20176;-74
2022/06/25 10:33:27;;;;;;;5.27;3.37;;;;;;;29.82;31.69;96811.63;5071871;28;20192;-69
2022/06/25 10:36:04;;;;;;;3.83;2.83;;;;;;;29.89;33.07;96812.47;5089369;28;20195;-70
2022/06/25 10:38:32;;;;;;;5.90;2.77;;;;;;;29.98;32.17;96816.66;5088492;28;20194;-70
2022/06/25 10:40:59;;;;;;;3.97;3.40;;;;;;;30.32;32.23;96803.31;5089446;28;20231;-72
2022/06/25 10:43:41;;;;;;;3.10;2.80;;;;;;;30.27;31.88;96811.06;5088409;28;20272;-74
2022/06/25 10:46:21;;;;;;;3.13;2.83;;;;;;;30.08;32.38;96812.63;5071603;28;20617;-72
2022/06/25 10:48:51;;;;;;;3.37;2.73;;;;;;;30.01;31.82;96801.06;5070993;28;20199;-72
2022/06/25 10:51:33;;;;;;;3.63;2.90;;;;;;;30.20;31.84;96805.69;5088343;28;20321;-72
2022/06/25 10:54:03;;;;;;;6.00;3.20;;;;;;;30.14;31.72;96809.16;5089670;28;20192;-71
2022/06/25 10:56:50;;;;;;;3.57;3.27;;;;;;;29.83;32.51;96811.41;5088148;28;20254;-73
2022/06/25 10:59:34;;;;;;;4.03;3.67;;;;;;;29.83;32.02;96803.41;5089382;28;20196;-72
2022/06/25 11:02:05;;;;;;;5.87;3.07;;;;;;;29.93;32.76;96797.72;5090081;28;20283;-72
2022/06/25 11:04:32;;;;;;;5.40;3.27;;;;;;;29.94;32.14;96784.19;5088721;28;20176;-72
2022/06/25 11:07:18;;;;;;;8.83;3.10;;;;;;;30.12;31.70;96803.19;5090571;28;20185;-72
2022/06/25 11:10:00;;;;;;;3.77;3.03;;;;;;;30.14;31.61;96793.13;5069983;28;20195;-72
2022/06/25 11:12:34;;;;;;;3.83;3.03;;;;;;;30.61;31.46;96795.00;5089589;28;20275;-74
2022/06/25 11:15:05;;;;;;;3.83;3.20;;;;;;;31.10;30.78;96797.41;5089874;28;20338;-74
2022/06/25 11:17:32;;;;;;;5.70;3.47;;;;;;;31.25;31.21;96801.56;5069622;28;20192;-72
2022/06/25 11:20:08;;;;;;;3.20;2.90;;;;;;;31.40;31.22;96797.88;5089934;28;20251;-72
2022/06/25 11:22:49;;;;;;;3.77;2.90;;;;;;;31.46;30.96;96797.06;5087937;28;20208;-72
2022/06/25 11:30:49;;;;;;;4.27;2.90;;;;;;;31.66;31.80;96790.66;5087786;28;20189;-72
2022/06/25 11:33:17;;;;;;;6.77;3.27;;;;;;;31.84;31.25;96790.03;5089518;28;20223;-73
2022/06/25 11:35:45;;;;;;;3.03;2.73;;;;;;;31.32;30.13;96791.66;5087553;28;20192;-72
2022/06/25 11:38:18;;;;;;;5.50;3.60;;;;;;;31.52;30.33;96783.66;5089366;28;20695;-73
2022/06/25 11:40:46;;;;;;;4.13;3.47;;;;;;;31.72;30.93;96781.78;5070616;28;20216;-73
2022/06/25 11:43:14;;;;;;;3.57;3.27;;;;;;;31.73;29.85;96791.50;5069548;28;20192;-73
2022/06/25 11:45:58;;;;;;;5.70;3.47;;;;;;;31.58;30.65;96785.53;5070405;28;20284;-73
2022/06/25 11:48:27;;;;;;;6.90;3.67;;;;;;;31.84;30.03;96785.47;5087285;28;20185;-73
2022/06/25 11:50:56;;;;;;;5.00;4.55;;;;;;;32.03;29.32;96767.75;5088683;28;20224;-73
2022/06/25 11:53:35;;;;;;;3.38;3.08;;;;;;;31.75;30.32;96792.09;5063088;28;20228;-74
2022/06/25 11:56:04;;;;;;;3.00;2.70;;;;;;;30.99;30.50;96780.13;5087530;28;20615;-72
2022/06/25 11:58:34;;;;;;;4.27;2.97;;;;;;;30.82;31.45;96780.66;5088947;28;20689;-74
2022/06/25 12:01:05;;;;;;;3.77;3.37;;;;;;;30.78;31.54;96784.75;5087054;28;20225;-73
2022/06/25 12:03:34;;;;;;;3.20;3.00;;;;;;;30.74;31.00;96775.50;5088713;28;20224;-73
2022/06/25 12:06:03;;;;;;;3.20;2.90;;;;;;;30.40;31.95;96776.41;5069284;28;20241;-73